createdAt,value
2023-02-13T00:02:12.513Z,8.73
2023-02-13T00:04:42.869Z,10.57
2023-02-13T00:07:12.753Z,9.40
2023-02-13T00:09:41.784Z,8.63
2023-02-13T00:12:11.378Z,9.03
2023-02-13T00:14:41.736Z,8.30
2023-02-13T00:17:10.745Z,8.33
2023-02-13T00:19:42.001Z,8.10
2023-02-13T00:22:11.069Z,7.77
2023-02-13T00:24:40.119Z,7.03
2023-02-13T00:27:09.067Z,8.13
2023-02-13T00:29:38.153Z,9.00
2023-02-13T00:32:08.803Z,8.90
2023-02-13T00:34:37.942Z,6.53
2023-02-13T00:37:06.942Z,7.20
2023-02-13T00:39:35.952Z,6.57
2023-02-13T00:42:05.489Z,8.83
2023-02-13T00:44:34.763Z,8.83
2023-02-13T00:47:04.925Z,8.87
2023-02-13T00:49:35.298Z,8.90
2023-02-13T00:52:05.162Z,9.17
2023-02-13T00:54:34.233Z,9.83
2023-02-13T00:57:03.393Z,10.43
2023-02-13T00:59:32.577Z,8.63
2023-02-13T01:02:02.956Z,7.93
2023-02-13T01:04:34.505Z,8.53
2023-02-13T01:07:03.595Z,8.10
2023-02-13T01:09:32.808Z,9.87
2023-02-13T01:12:01.971Z,10.90
2023-02-13T01:14:31.260Z,11.40
2023-02-13T01:17:00.350Z,9.83
2023-02-13T01:19:29.778Z,9.80
2023-02-13T01:22:01.547Z,9.90
2023-02-13T01:24:33.313Z,10.23
2023-02-13T01:27:03.303Z,10.17
2023-02-13T01:29:32.558Z,10.37
2023-02-13T01:32:06.446Z,8.97
2023-02-13T01:34:35.971Z,8.37
2023-02-13T01:37:07.844Z,9.10
2023-02-13T01:39:36.838Z,9.10
2023-02-13T01:42:06.228Z,10.17
2023-02-13T01:44:51.328Z,8.10
2023-02-13T01:50:35.350Z,8.90
2023-02-13T01:53:10.715Z,6.57
2023-02-13T01:55:48.216Z,8.47
2023-02-13T01:58:26.795Z,8.90
2023-02-13T02:00:56.177Z,7.53
2023-02-13T02:03:37.366Z,9.80
2023-02-13T02:06:17.939Z,8.50
2023-02-13T02:08:51.012Z,7.97
2023-02-13T02:11:32.155Z,8.57
2023-02-13T02:14:02.704Z,7.67
2023-02-13T02:16:35.244Z,8.07
2023-02-13T02:19:10.608Z,7.53
2023-02-13T02:22:10.537Z,7.60
2023-02-13T02:25:34.307Z,7.30
2023-02-13T02:28:23.818Z,7.90
2023-02-13T02:31:23.222Z,8.17
2023-02-13T02:34:10.936Z,8.20
2023-02-13T02:36:58.377Z,6.67
2023-02-13T02:39:39.160Z,7.00
2023-02-13T02:42:21.422Z,8.00
2023-02-13T02:44:59.163Z,6.67
2023-02-13T02:47:55.650Z,7.30
2023-02-13T02:50:37.695Z,6.73
2023-02-13T02:53:18.801Z,7.10
2023-02-13T02:55:55.744Z,6.63
2023-02-13T02:58:50.796Z,6.63
2023-02-13T03:01:45.951Z,4.97
2023-02-13T03:04:38.758Z,5.70
2023-02-13T03:07:12.874Z,5.10
2023-02-13T03:10:06.870Z,6.30
2023-02-13T03:12:59.260Z,6.50
2023-02-13T03:15:28.909Z,5.73
2023-02-13T03:18:13.003Z,6.23
2023-02-13T03:21:06.740Z,5.87
2023-02-13T03:23:50.712Z,6.93
2023-02-13T03:26:50.384Z,7.47
2023-02-13T03:29:55.637Z,6.20
2023-02-13T03:32:35.111Z,7.37
2023-02-13T03:35:38.477Z,6.80
2023-02-13T03:38:14.786Z,7.00
2023-02-13T03:41:09.560Z,5.87
2023-02-13T03:43:46.100Z,6.07
2023-02-13T03:46:20.886Z,6.83
2023-02-13T03:49:07.793Z,9.17
2023-02-13T03:51:44.467Z,7.07
2023-02-13T03:54:20.657Z,5.93
2023-02-13T03:57:11.301Z,5.60
2023-02-13T03:59:40.487Z,6.90
2023-02-13T04:02:14.865Z,6.40
2023-02-13T04:04:52.292Z,5.47
2023-02-13T04:07:32.230Z,6.03
2023-02-13T04:10:05.484Z,7.13
2023-02-13T04:12:44.898Z,6.83
2023-02-13T04:15:22.224Z,7.17
2023-02-13T04:17:56.932Z,6.67
2023-02-13T04:20:28.868Z,6.87
2023-02-13T04:22:57.871Z,6.77
2023-02-13T04:25:29.083Z,7.87
2023-02-13T04:27:59.464Z,7.57
2023-02-13T04:30:28.562Z,7.20
2023-02-13T04:32:57.698Z,7.10
2023-02-13T04:35:26.763Z,7.07
2023-02-13T04:37:55.862Z,6.87
2023-02-13T04:40:24.946Z,7.03
2023-02-13T04:42:58.243Z,7.07
2023-02-13T04:45:27.491Z,6.90
2023-02-13T04:47:59.547Z,6.30
2023-02-13T04:50:28.491Z,5.70
2023-02-13T04:52:58.988Z,5.27
2023-02-13T04:55:29.475Z,6.93
2023-02-13T04:58:00.056Z,6.40
2023-02-13T05:00:30.555Z,6.07
2023-02-13T05:03:06.083Z,5.20
2023-02-13T05:05:35.917Z,4.83
2023-02-13T05:08:05.389Z,6.90
2023-02-13T05:10:37.530Z,6.23
2023-02-13T05:13:07.889Z,7.50
2023-02-13T05:15:36.868Z,6.80
2023-02-13T05:18:06.175Z,6.03
2023-02-13T05:20:35.136Z,5.07
2023-02-13T05:23:21.856Z,5.80
2023-02-13T05:25:51.614Z,6.13
2023-02-13T05:28:39.769Z,6.77
2023-02-13T05:31:08.858Z,6.63
2023-02-13T05:33:38.955Z,5.60
2023-02-13T05:36:09.107Z,5.93
2023-02-13T05:38:38.133Z,5.93
2023-02-13T05:41:07.088Z,5.20
2023-02-13T05:43:37.449Z,5.27
2023-02-13T05:46:08.694Z,4.30
2023-02-13T05:48:38.279Z,5.30
2023-02-13T05:51:07.563Z,5.37
2023-02-13T05:53:36.599Z,6.23
2023-02-13T05:56:09.152Z,7.67
2023-02-13T05:58:39.470Z,6.43
2023-02-13T06:01:10.780Z,7.03
2023-02-13T06:03:40.339Z,7.00
2023-02-13T06:06:09.684Z,7.60
2023-02-13T06:08:38.773Z,7.10
2023-02-13T06:11:08.321Z,6.77
2023-02-13T06:13:41.886Z,6.40
2023-02-13T06:16:14.462Z,5.97
2023-02-13T06:18:43.568Z,5.63
2023-02-13T06:21:12.579Z,4.80
2023-02-13T06:23:41.825Z,6.13
2023-02-13T06:26:11.495Z,5.80
2023-02-13T06:28:41.965Z,6.10
2023-02-13T06:31:11.202Z,5.87
2023-02-13T06:33:43.052Z,7.13
2023-02-13T06:36:12.010Z,8.50
2023-02-13T06:38:41.051Z,7.00
2023-02-13T06:41:10.918Z,6.83
2023-02-13T06:43:41.275Z,6.37
2023-02-13T06:46:10.978Z,7.13
2023-02-13T06:48:40.075Z,5.73
2023-02-13T06:51:09.065Z,6.93
2023-02-13T06:53:38.073Z,7.53
2023-02-13T06:56:07.606Z,8.50
2023-02-13T06:58:36.661Z,7.03
2023-02-13T07:01:07.430Z,6.40
2023-02-13T07:03:36.459Z,5.93
2023-02-13T07:06:05.789Z,5.40
2023-02-13T07:08:34.764Z,5.00
2023-02-13T07:11:03.739Z,5.03
2023-02-13T07:13:32.846Z,5.70
2023-02-13T07:16:02.821Z,4.77
2023-02-13T07:18:33.227Z,5.47
2023-02-13T07:21:02.166Z,6.43
2023-02-13T07:23:31.203Z,6.33
2023-02-13T07:26:01.050Z,5.67
2023-02-13T07:28:30.776Z,6.27
2023-02-13T07:31:05.110Z,6.77
2023-02-13T07:33:36.355Z,7.23
2023-02-13T07:36:06.701Z,7.40
2023-02-13T07:38:35.828Z,10.67
2023-02-13T07:41:05.931Z,9.07
2023-02-13T07:43:34.980Z,8.37
2023-02-13T07:46:05.754Z,7.00
2023-02-13T07:48:36.124Z,7.87
2023-02-13T07:51:07.597Z,8.23
2023-02-13T07:53:37.211Z,8.27
2023-02-13T07:56:10.394Z,8.10
2023-02-13T07:58:42.350Z,9.23
2023-02-13T08:01:14.626Z,9.63
2023-02-13T08:03:45.065Z,11.70
2023-02-13T08:06:14.126Z,9.60
2023-02-13T08:08:43.137Z,9.43
2023-02-13T08:11:42.474Z,12.47
2023-02-13T08:14:11.603Z,10.77
2023-02-13T08:16:40.672Z,10.67
2023-02-13T08:19:10.989Z,9.07
2023-02-13T08:21:42.910Z,10.30
2023-02-13T08:24:12.315Z,10.80
2023-02-13T08:26:41.804Z,9.87
2023-02-13T08:29:11.525Z,8.77
2023-02-13T08:31:40.561Z,8.53
2023-02-13T08:34:11.581Z,9.00
2023-02-13T08:36:40.651Z,9.20
2023-02-13T08:39:10.938Z,8.33
2023-02-13T08:41:41.093Z,8.30
2023-02-13T08:44:11.664Z,8.23
2023-02-13T08:46:40.784Z,8.93
2023-02-13T08:49:11.221Z,9.00
2023-02-13T08:51:40.242Z,6.90
2023-02-13T08:54:10.385Z,7.57
2023-02-13T08:56:39.701Z,8.03
2023-02-13T08:59:09.014Z,8.03
2023-02-13T09:01:38.172Z,7.53
2023-02-13T09:04:07.296Z,8.83
2023-02-13T09:06:37.949Z,9.23
2023-02-13T09:09:07.262Z,8.63
2023-02-13T09:11:36.308Z,7.97
2023-02-13T09:14:08.101Z,7.30
2023-02-13T09:16:37.174Z,7.03
2023-02-13T09:19:06.202Z,6.53
2023-02-13T09:21:35.334Z,7.57
2023-02-13T09:24:08.994Z,7.30
2023-02-13T09:26:38.172Z,6.67
2023-02-13T09:29:07.181Z,5.93
2023-02-13T09:31:36.276Z,7.43
2023-02-13T09:34:05.381Z,6.60
2023-02-13T09:36:34.423Z,6.37
2023-02-13T09:39:07.839Z,5.87
2023-02-13T09:41:40.960Z,5.27
2023-02-13T09:44:33.909Z,6.77
2023-02-13T09:47:08.854Z,6.90
2023-02-13T09:49:44.751Z,7.60
2023-02-13T09:52:13.836Z,6.67
2023-02-13T09:54:44.252Z,6.83
2023-02-13T09:57:21.764Z,6.63
2023-02-13T10:00:01.715Z,6.57
2023-02-13T10:03:23.498Z,6.20
2023-02-13T10:06:03.879Z,5.80
2023-02-13T10:09:09.264Z,5.33
2023-02-13T10:12:05.928Z,5.13
2023-02-13T10:14:47.424Z,4.70
2023-02-13T10:17:22.837Z,5.27
2023-02-13T10:19:58.507Z,4.27
2023-02-13T10:22:34.475Z,4.27
2023-02-13T10:25:07.900Z,8.57
2023-02-13T10:27:44.596Z,4.47
2023-02-13T10:30:22.486Z,4.40
2023-02-13T10:33:13.997Z,4.10
2023-02-13T10:35:46.297Z,4.60
2023-02-13T10:38:19.098Z,5.87
2023-02-13T10:41:22.280Z,4.30
2023-02-13T10:44:07.392Z,4.80
2023-02-13T10:46:46.563Z,4.03
2023-02-13T10:49:47.807Z,3.77
2023-02-13T10:52:29.772Z,4.70
2023-02-13T10:55:16.417Z,4.80
2023-02-13T10:58:09.525Z,4.17
2023-02-13T11:00:48.180Z,4.10
2023-02-13T11:03:20.959Z,9.43
2023-02-13T11:05:51.033Z,5.43
2023-02-13T11:08:23.858Z,4.77
2023-02-13T11:10:53.826Z,3.97
2023-02-13T11:13:25.530Z,3.80
2023-02-13T11:16:05.446Z,4.30
2023-02-13T11:18:37.720Z,3.90
2023-02-13T11:21:10.765Z,3.60
2023-02-13T11:23:45.584Z,3.53
2023-02-13T11:26:23.305Z,2.77
2023-02-13T11:28:56.682Z,2.77
2023-02-13T11:31:32.912Z,3.10
2023-02-13T11:34:26.322Z,3.37
2023-02-13T11:37:11.127Z,3.37
2023-02-13T11:39:41.259Z,3.50
2023-02-13T11:42:16.508Z,3.47
2023-02-13T11:44:51.664Z,3.33
2023-02-13T11:47:37.562Z,2.47
2023-02-13T11:50:20.521Z,3.20
2023-02-13T11:52:59.274Z,3.13
2023-02-13T11:55:33.466Z,3.13
2023-02-13T11:58:05.268Z,5.57
2023-02-13T12:00:41.530Z,4.50
2023-02-13T12:03:30.522Z,4.73
2023-02-13T12:06:07.198Z,3.80
2023-02-13T12:08:39.898Z,3.40
2023-02-13T12:11:22.512Z,2.93
2023-02-13T12:13:53.208Z,2.80
2023-02-13T12:16:31.631Z,2.40
2023-02-13T12:19:07.416Z,2.80
2023-02-13T12:21:58.915Z,5.67
2023-02-13T12:24:52.403Z,4.17
2023-02-13T12:27:31.534Z,2.97
2023-02-13T12:30:33.055Z,2.92
2023-02-13T12:33:16.613Z,2.50
2023-02-13T12:35:58.531Z,2.88
2023-02-13T12:38:48.168Z,2.90
2023-02-13T12:41:21.621Z,2.88
2023-02-13T12:44:32.119Z,4.18
2023-02-13T12:47:13.011Z,2.58
2023-02-13T12:50:37.482Z,2.33
2023-02-13T12:53:29.530Z,2.23
2023-02-13T12:56:26.992Z,2.67
2023-02-13T12:59:11.515Z,3.50
2023-02-13T13:02:30.519Z,3.27
2023-02-13T13:05:15.350Z,2.80
2023-02-13T13:08:13.039Z,2.80
2023-02-13T13:10:55.042Z,3.00
2023-02-13T13:13:39.213Z,3.03
2023-02-13T13:16:20.139Z,3.87
2023-02-13T13:19:02.876Z,3.00
2023-02-13T13:21:43.004Z,3.53
2023-02-13T13:24:33.539Z,4.37
2023-02-13T13:27:04.952Z,3.80
2023-02-13T13:29:43.259Z,3.50
2023-02-13T13:32:18.320Z,3.20
2023-02-13T13:34:48.147Z,3.40
2023-02-13T13:37:30.743Z,3.87
2023-02-13T13:40:16.227Z,3.67
2023-02-13T13:42:53.217Z,3.47
2023-02-13T13:45:38.319Z,5.60
2023-02-13T13:48:41.775Z,3.73
2023-02-13T13:51:19.725Z,4.00
2023-02-13T13:54:35.585Z,5.00
2023-02-13T13:57:13.599Z,3.10
2023-02-13T14:00:26.306Z,4.00
2023-02-13T14:03:36.398Z,7.13
2023-02-13T14:06:09.503Z,4.10
2023-02-13T14:09:06.852Z,3.53
2023-02-13T14:11:46.770Z,3.33
2023-02-13T14:14:54.106Z,3.40
2023-02-13T14:17:56.137Z,3.77
2023-02-13T14:20:36.834Z,3.13
2023-02-13T14:23:37.337Z,3.60
2023-02-13T14:26:33.674Z,3.90
2023-02-13T14:29:32.893Z,3.63
2023-02-13T14:32:19.920Z,3.50
2023-02-13T14:34:59.434Z,3.60
2023-02-13T14:37:40.410Z,4.00
2023-02-13T14:40:48.182Z,3.97
2023-02-13T14:43:37.463Z,3.93
2023-02-13T14:46:22.105Z,3.50
2023-02-13T14:48:58.666Z,3.57
2023-02-13T14:51:35.989Z,3.47
2023-02-13T14:54:20.286Z,2.50
2023-02-13T14:56:53.022Z,3.27
2023-02-13T14:59:32.673Z,3.63
2023-02-13T15:02:08.699Z,3.53
2023-02-13T15:04:44.364Z,3.23
2023-02-13T15:07:21.648Z,2.97
2023-02-13T15:09:55.316Z,3.10
2023-02-13T15:12:30.969Z,3.50
2023-02-13T15:15:02.417Z,3.30
2023-02-13T15:17:38.356Z,3.20
2023-02-13T15:20:26.748Z,3.13
2023-02-13T15:22:59.302Z,3.17
2023-02-13T15:25:35.995Z,3.20
2023-02-13T15:28:10.063Z,5.13
2023-02-13T15:30:39.679Z,4.13
2023-02-13T15:33:19.308Z,3.73
2023-02-13T15:35:59.541Z,5.37
2023-02-13T15:38:31.217Z,4.30
2023-02-13T15:41:04.050Z,3.77
2023-02-13T15:43:38.391Z,5.03
2023-02-13T15:46:20.348Z,5.20
2023-02-13T15:48:50.081Z,5.07
2023-02-13T15:51:23.860Z,6.00
2023-02-13T15:53:54.247Z,6.40
2023-02-13T15:56:26.920Z,6.20
2023-02-13T15:58:57.480Z,6.67
2023-02-13T16:01:26.811Z,6.30
2023-02-13T16:04:01.511Z,5.97
2023-02-13T16:06:32.976Z,5.93
2023-02-13T16:09:03.254Z,6.10
2023-02-13T16:11:35.947Z,6.20
2023-02-13T16:14:25.307Z,6.27
2023-02-13T16:16:59.442Z,7.27
2023-02-13T16:19:37.422Z,6.20
2023-02-13T16:22:26.622Z,5.70
2023-02-13T16:25:06.757Z,5.67
2023-02-13T16:27:36.380Z,5.60
2023-02-13T16:30:17.545Z,6.13
2023-02-13T16:32:46.548Z,5.23
2023-02-13T16:35:30.925Z,6.33
2023-02-13T16:38:04.772Z,6.93
2023-02-13T16:40:43.413Z,7.57
2023-02-13T16:43:39.888Z,7.33
2023-02-13T16:46:31.176Z,9.53
2023-02-13T16:49:21.076Z,10.30
2023-02-13T16:51:55.185Z,9.83
2023-02-13T16:54:33.407Z,10.40
2023-02-13T16:57:18.535Z,9.27
2023-02-13T17:00:02.056Z,9.80
2023-02-13T17:02:33.751Z,9.40
2023-02-13T17:05:21.368Z,11.50
2023-02-13T17:07:53.094Z,9.33
2023-02-13T17:10:27.419Z,9.90
2023-02-13T17:12:59.645Z,10.87
2023-02-13T17:15:31.626Z,11.50
2023-02-13T17:18:00.954Z,11.87
2023-02-13T17:20:36.188Z,10.53
2023-02-13T17:23:08.246Z,11.27
2023-02-13T17:25:39.745Z,11.23
2023-02-13T17:28:14.998Z,11.00
2023-02-13T17:30:44.922Z,11.57
2023-02-13T17:33:18.102Z,10.50
2023-02-13T17:35:47.083Z,10.83
2023-02-13T17:38:16.352Z,10.63
2023-02-13T17:40:47.842Z,10.10
2023-02-13T17:43:19.735Z,10.00
2023-02-13T17:45:49.985Z,9.07
2023-02-13T17:48:19.117Z,9.73
2023-02-13T17:50:50.022Z,9.17
2023-02-13T17:53:34.838Z,9.63
2023-02-13T17:56:05.575Z,9.07
2023-02-13T17:58:34.664Z,13.13
2023-02-13T18:01:06.772Z,10.73
2023-02-13T18:03:35.730Z,13.10
2023-02-13T18:06:07.927Z,12.70
2023-02-13T18:08:36.986Z,12.43
2023-02-13T18:11:12.395Z,12.53
2023-02-13T18:13:48.007Z,13.33
2023-02-13T18:16:17.422Z,12.77
2023-02-13T18:18:46.402Z,11.00
2023-02-13T18:21:15.300Z,10.37
2023-02-13T18:23:44.352Z,9.33
2023-02-13T18:26:14.689Z,8.97
2023-02-13T18:28:43.761Z,9.27
2023-02-13T18:31:13.721Z,9.23
2023-02-13T18:33:42.788Z,9.90
2023-02-13T18:36:12.736Z,9.53
2023-02-13T18:38:41.804Z,8.47
2023-02-13T18:41:15.128Z,8.80
2023-02-13T18:43:44.109Z,7.20
2023-02-13T18:46:15.994Z,7.17
2023-02-13T18:48:45.036Z,8.40
2023-02-13T18:51:14.489Z,9.10
2023-02-13T18:53:43.503Z,8.20
2023-02-13T18:56:14.274Z,8.37
2023-02-13T18:58:43.336Z,7.80
2023-02-13T19:01:32.566Z,7.63
2023-02-13T19:04:03.301Z,6.10
2023-02-13T19:06:33.433Z,7.20
2023-02-13T19:09:02.463Z,10.43
2023-02-13T19:11:34.328Z,10.90
2023-02-13T19:14:03.351Z,9.47
2023-02-13T19:16:34.810Z,8.17
2023-02-13T19:19:07.956Z,7.93
2023-02-13T19:21:39.384Z,7.40
2023-02-13T19:24:15.377Z,6.33
2023-02-13T19:26:48.860Z,6.27
2023-02-13T19:29:17.880Z,6.17
2023-02-13T19:31:47.095Z,6.23
2023-02-13T19:34:16.179Z,6.47
2023-02-13T19:36:48.172Z,6.93
2023-02-13T19:39:17.689Z,6.97
2023-02-13T19:41:51.032Z,6.70
2023-02-13T19:44:20.027Z,6.33
2023-02-13T19:46:49.037Z,7.43
2023-02-13T19:49:19.020Z,6.93
2023-02-13T19:51:50.749Z,5.80
2023-02-13T19:54:22.479Z,5.83
2023-02-13T19:56:54.680Z,7.13
2023-02-13T19:59:23.767Z,6.83
2023-02-13T20:01:52.788Z,6.67
2023-02-13T20:04:21.921Z,6.33
2023-02-13T20:06:57.536Z,5.97
2023-02-13T20:09:26.624Z,5.97
2023-02-13T20:11:57.034Z,5.67
2023-02-13T20:14:26.030Z,6.07
2023-02-13T20:16:55.039Z,7.00
2023-02-13T20:19:27.849Z,7.33
2023-02-13T20:21:59.014Z,6.63
2023-02-13T20:24:28.113Z,6.37
2023-02-13T20:26:58.911Z,6.27
2023-02-13T20:29:27.928Z,7.33
2023-02-13T20:31:59.271Z,7.00
2023-02-13T20:34:31.637Z,8.03
2023-02-13T20:37:06.543Z,6.40
2023-02-13T20:39:35.499Z,7.43
2023-02-13T20:42:06.680Z,7.73
2023-02-13T20:44:35.732Z,8.10
2023-02-13T20:47:05.179Z,7.03
2023-02-13T20:49:34.160Z,7.43
2023-02-13T20:52:03.733Z,7.07
2023-02-13T20:54:32.959Z,7.77
2023-02-13T20:57:02.058Z,8.83
2023-02-13T20:59:32.613Z,10.30
2023-02-13T21:02:01.629Z,10.27
2023-02-13T21:04:32.668Z,10.33
2023-02-13T21:07:02.706Z,10.60
2023-02-13T21:09:31.804Z,10.03
2023-02-13T21:12:00.733Z,10.63
2023-02-13T21:14:31.103Z,9.13
2023-02-13T21:17:00.105Z,8.10
2023-02-13T21:19:31.213Z,9.20
2023-02-13T21:22:11.105Z,8.10
2023-02-13T21:24:41.842Z,8.33
2023-02-13T21:27:11.700Z,8.67
2023-02-13T21:29:42.184Z,8.10
2023-02-13T21:32:11.203Z,8.70
2023-02-13T21:34:40.271Z,8.37
2023-02-13T21:37:09.201Z,8.03
2023-02-13T21:39:38.206Z,8.50
2023-02-13T21:42:07.246Z,8.97
2023-02-13T21:44:36.221Z,9.13
2023-02-13T21:47:07.242Z,11.40
2023-02-13T21:49:36.830Z,8.13
2023-02-13T21:52:06.026Z,7.37
2023-02-13T21:54:35.320Z,8.60
2023-02-13T21:57:04.375Z,10.17
2023-02-13T21:59:33.385Z,10.37
2023-02-13T22:02:02.774Z,12.53
2023-02-13T22:04:33.254Z,11.87
2023-02-13T22:07:02.182Z,10.63
2023-02-13T22:09:31.187Z,10.20
2023-02-13T22:12:00.209Z,11.00
2023-02-13T22:14:29.341Z,9.70
2023-02-13T22:16:58.461Z,8.97
2023-02-13T22:19:27.528Z,10.20
2023-02-13T22:21:57.835Z,9.00
2023-02-13T22:24:27.816Z,9.43
2023-02-13T22:26:56.846Z,8.87
2023-02-13T22:29:26.984Z,9.50
2023-02-13T22:31:56.093Z,9.63
2023-02-13T22:34:25.060Z,8.73
2023-02-13T22:36:58.579Z,8.50
2023-02-13T22:39:30.892Z,7.77
2023-02-13T22:41:59.858Z,8.63
2023-02-13T22:44:29.191Z,8.10
2023-02-13T22:46:58.224Z,7.97
2023-02-13T22:49:27.335Z,9.27
2023-02-13T22:51:56.401Z,8.50
2023-02-13T22:54:29.820Z,7.33
2023-02-13T22:56:58.791Z,6.90
2023-02-13T22:59:27.729Z,10.43
2023-02-13T23:01:56.739Z,10.30
2023-02-13T23:04:27.963Z,8.77
2023-02-13T23:06:57.020Z,8.67
2023-02-13T23:09:26.603Z,9.43
2023-02-13T23:12:14.624Z,10.70
2023-02-13T23:14:43.867Z,10.17
2023-02-13T23:17:30.531Z,10.30
2023-02-13T23:19:59.481Z,9.40
2023-02-13T23:22:30.752Z,9.90
2023-02-13T23:25:02.840Z,9.53
2023-02-13T23:27:36.610Z,9.17
2023-02-13T23:30:08.136Z,8.43
2023-02-13T23:32:40.239Z,7.43
2023-02-13T23:35:10.699Z,6.80
2023-02-13T23:37:39.707Z,6.97
2023-02-13T23:40:10.723Z,8.53
2023-02-13T23:42:41.286Z,8.07
2023-02-13T23:45:10.932Z,8.90
2023-02-13T23:47:40.052Z,9.73
2023-02-13T23:50:10.044Z,8.80
2023-02-13T23:52:39.020Z,7.90
2023-02-13T23:55:08.430Z,7.57
2023-02-13T23:57:37.403Z,8.50
